There are multiple Weather-warnings   Click here for more information


Meteo18 Weather Cam more information Meteo18 Weather Cam


warning for Thunderstorms more information blitzortung!


Rain radar more information rain snow radar


Visit our other weather sites:

Template documentation
and downloads

And another site



Weather Underground History page Text

Daily Summary for September 2, 2017 Units:  Both    English   Metric
« Previous Day
Next Day »
Daily Weekly Monthly Yearly Custom
  High: Low: Average:
Temperature: 67.6 °F /  19.8 °C 51.8 °F /  11.0 °C 58.6 °F /  14.8 °C
Dew Point: 54.1 °F /  12.3 °C 48.9 °F /  9.4 °C 51.1 °F /  10.6 °C
Humidity: 94 % 52 % 77 %
Wind Speed: 15 mph /  24.1 km/h - 1.7 mph /  2.8 km/h
Wind Gust: 17 mph /  27.4 km/h - -
Wind:- - SW
Pressure: 30.2 in /  1022.9 hPa 30.2 in /  1021.2 hPa -
Precipitation: 0 in /  0.0 mm    
Historical Graphs
 
 
Tabular Data for September 2, 2017
Time Temperature Dew Point Pressure Wind Wind Speed Wind Gust Humidity Rainfall Rate (Hourly)
00:02 55.2 °F /  12.9 °C 51.1 °F /  10.6 °C 30.2 in /  1022.2 hPa West 1 mph /  1.6 km/h 2 mph /  3.2 km/h 86 % 0 in /  0.0 mm
00:07 55 °F /  12.8 °C 50.9 °F /  10.5 °C 30.2 in /  1022.2 hPa Calm   3 mph /  4.8 km/h 86 % 0 in /  0.0 mm
00:12 54.9 °F /  12.7 °C 51.1 °F /  10.6 °C 30.2 in /  1022.2 hPa Calm   3 mph /  4.8 km/h 87 % 0 in /  0.0 mm
00:17 54.9 °F /  12.7 °C 51.1 °F /  10.6 °C 30.2 in /  1022.2 hPa Calm   3 mph /  4.8 km/h 87 % 0 in /  0.0 mm
00:22 54.7 °F /  12.6 °C 50.9 °F /  10.5 °C 30.2 in /  1022.2 hPa Calm   3 mph /  4.8 km/h 87 % 0 in /  0.0 mm
00:32 54.3 °F /  12.4 °C 50.9 °F /  10.5 °C 30.2 in /  1022.2 hPa Calm   1 mph /  1.6 km/h 88 % 0 in /  0.0 mm
00:37 54 °F /  12.2 °C 50.5 °F /  10.3 °C 30.2 in /  1022.2 hPa Calm   1 mph /  1.6 km/h 88 % 0 in /  0.0 mm
00:42 53.4 °F /  11.9 °C 50.2 °F /  10.1 °C 30.2 in /  1022.2 hPa Calm   3 mph /  4.8 km/h 89 % 0 in /  0.0 mm
00:52 53.1 °F /  11.7 °C 50.2 °F /  10.1 °C 30.2 in /  1022.2 hPa Calm   3 mph /  4.8 km/h 90 % 0 in /  0.0 mm
00:57 53.1 °F /  11.7 °C 50.2 °F /  10.1 °C 30.2 in /  1022.2 hPa Calm   1 mph /  1.6 km/h 90 % 0 in /  0.0 mm
01:02 52.9 °F /  11.6 °C 50.4 °F /  10.2 °C 30.2 in /  1022.2 hPa Calm   1 mph /  1.6 km/h 91 % 0 in /  0.0 mm
01:12 52.9 °F /  11.6 °C 50.4 °F /  10.2 °C 30.2 in /  1022.2 hPa Calm   1 mph /  1.6 km/h 91 % 0 in /  0.0 mm
01:17 52.7 °F /  11.5 °C 50.4 °F /  10.2 °C 30.2 in /  1022.2 hPa Calm   1 mph /  1.6 km/h 92 % 0 in /  0.0 mm
01:22 52.9 °F /  11.6 °C 50.5 °F /  10.3 °C 30.2 in /  1022.2 hPa Calm   1 mph /  1.6 km/h 92 % 0 in /  0.0 mm
01:27 52.9 °F /  11.6 °C 50.5 °F /  10.3 °C 30.2 in /  1022.2 hPa Calm   1 mph /  1.6 km/h 92 % 0 in /  0.0 mm
01:32 52.9 °F /  11.6 °C 50.5 °F /  10.3 °C 30.2 in /  1022.2 hPa Calm   1 mph /  1.6 km/h 92 % 0 in /  0.0 mm
01:37 53.1 °F /  11.7 °C 50.7 °F /  10.4 °C 30.2 in /  1022.2 hPa Calm     92 % 0 in /  0.0 mm
01:42 52.9 °F /  11.6 °C 50.5 °F /  10.3 °C 30.2 in /  1022.2 hPa Calm     92 % 0 in /  0.0 mm
01:47 53.1 °F /  11.7 °C 50.7 °F /  10.4 °C 30.2 in /  1022.2 hPa Calm     92 % 0 in /  0.0 mm
01:52 53.1 °F /  11.7 °C 50.7 °F /  10.4 °C 30.2 in /  1022.2 hPa Calm     92 % 0 in /  0.0 mm
01:57 53.2 °F /  11.8 °C 50.9 °F /  10.5 °C 30.2 in /  1022.2 hPa Calm     92 % 0 in /  0.0 mm
02:02 53.2 °F /  11.8 °C 50.7 °F /  10.4 °C 30.2 in /  1022.2 hPa Calm     91 % 0 in /  0.0 mm
02:12 53.1 °F /  11.7 °C 50.5 °F /  10.3 °C 30.2 in /  1022.2 hPa Calm     91 % 0 in /  0.0 mm
02:17 53.2 °F /  11.8 °C 50.9 °F /  10.5 °C 30.2 in /  1022.2 hPa Calm     92 % 0 in /  0.0 mm
02:22 53.2 °F /  11.8 °C 50.9 °F /  10.5 °C 30.2 in /  1022.2 hPa Calm     92 % 0 in /  0.0 mm
02:32 53.2 °F /  11.8 °C 50.9 °F /  10.5 °C 30.2 in /  1022.2 hPa Calm     92 % 0 in /  0.0 mm
02:37 53.2 °F /  11.8 °C 50.9 °F /  10.5 °C 30.2 in /  1022.2 hPa Calm     92 % 0 in /  0.0 mm
02:42 53.2 °F /  11.8 °C 50.9 °F /  10.5 °C 30.2 in /  1021.9 hPa Calm     92 % 0 in /  0.0 mm
02:52 53.1 °F /  11.7 °C 50.7 °F /  10.4 °C 30.2 in /  1021.9 hPa Calm     92 % 0 in /  0.0 mm
02:57 52.9 °F /  11.6 °C 50.5 °F /  10.3 °C 30.2 in /  1021.9 hPa Calm     92 % 0 in /  0.0 mm
03:02 52.9 °F /  11.6 °C 50.5 °F /  10.3 °C 30.2 in /  1022.2 hPa Calm     92 % 0 in /  0.0 mm
03:07 53.1 °F /  11.7 °C 51.1 °F /  10.6 °C 30.2 in /  1022.2 hPa Calm     93 % 0 in /  0.0 mm
03:12 53.1 °F /  11.7 °C 51.1 °F /  10.6 °C 30.2 in /  1022.2 hPa Calm     93 % 0 in /  0.0 mm
03:17 52.9 °F /  11.6 °C 50.9 °F /  10.5 °C 30.2 in /  1022.2 hPa Calm     93 % 0 in /  0.0 mm
03:22 52.9 °F /  11.6 °C 50.9 °F /  10.5 °C 30.2 in /  1022.2 hPa Calm     93 % 0 in /  0.0 mm
03:27 52.9 °F /  11.6 °C 50.9 °F /  10.5 °C 30.2 in /  1022.2 hPa Calm     93 % 0 in /  0.0 mm
03:32 52.9 °F /  11.6 °C 50.9 °F /  10.5 °C 30.2 in /  1022.2 hPa Calm     93 % 0 in /  0.0 mm
03:37 52.9 °F /  11.6 °C 50.9 °F /  10.5 °C 30.2 in /  1022.2 hPa Calm     93 % 0 in /  0.0 mm
03:42 52.7 °F /  11.5 °C 50.7 °F /  10.4 °C 30.2 in /  1022.2 hPa Calm     93 % 0 in /  0.0 mm
03:47 52.5 °F /  11.4 °C 50.5 °F /  10.3 °C 30.2 in /  1022.2 hPa Calm     93 % 0 in /  0.0 mm
03:52 52.5 °F /  11.4 °C 50.5 °F /  10.3 °C 30.2 in /  1022.2 hPa Calm     93 % 0 in /  0.0 mm
03:57 52.3 °F /  11.3 °C 50.4 °F /  10.2 °C 30.2 in /  1022.2 hPa Calm     93 % 0 in /  0.0 mm
04:02 52.2 °F /  11.2 °C 50.2 °F /  10.1 °C 30.2 in /  1022.2 hPa Calm     93 % 0 in /  0.0 mm
04:12 52.2 °F /  11.2 °C 50.5 °F /  10.3 °C 30.2 in /  1022.2 hPa Calm     94 % 0 in /  0.0 mm
04:17 52.2 °F /  11.2 °C 50.5 °F /  10.3 °C 30.2 in /  1022.2 hPa Calm     94 % 0 in /  0.0 mm
04:22 52.2 °F /  11.2 °C 50.5 °F /  10.3 °C 30.2 in /  1022.2 hPa Calm     94 % 0 in /  0.0 mm
04:27 52 °F /  11.1 °C 50.4 °F /  10.2 °C 30.2 in /  1022.2 hPa Calm     94 % 0 in /  0.0 mm
04:32 52 °F /  11.1 °C 50.4 °F /  10.2 °C 30.2 in /  1021.9 hPa Calm     94 % 0 in /  0.0 mm
04:37 52 °F /  11.1 °C 50.4 °F /  10.2 °C 30.2 in /  1021.9 hPa Calm     94 % 0 in /  0.0 mm
04:42 52 °F /  11.1 °C 50.4 °F /  10.2 °C 30.2 in /  1021.9 hPa Calm     94 % 0 in /  0.0 mm
04:47 52 °F /  11.1 °C 50.4 °F /  10.2 °C 30.2 in /  1022.2 hPa Calm     94 % 0 in /  0.0 mm
04:52 52 °F /  11.1 °C 50.4 °F /  10.2 °C 30.2 in /  1021.9 hPa Calm     94 % 0 in /  0.0 mm
04:57 52 °F /  11.1 °C 50.4 °F /  10.2 °C 30.2 in /  1021.9 hPa Calm     94 % 0 in /  0.0 mm
05:02 51.8 °F /  11.0 °C 50.2 °F /  10.1 °C 30.2 in /  1021.9 hPa Calm     94 % 0 in /  0.0 mm
05:12 52 °F /  11.1 °C 50.4 °F /  10.2 °C 30.2 in /  1021.9 hPa Calm     94 % 0 in /  0.0 mm
05:17 52 °F /  11.1 °C 50.4 °F /  10.2 °C 30.2 in /  1021.9 hPa Calm     94 % 0 in /  0.0 mm
05:27 52 °F /  11.1 °C 50 °F /  10.0 °C 30.2 in /  1021.9 hPa Calm     93 % 0 in /  0.0 mm
05:32 52 °F /  11.1 °C 50 °F /  10.0 °C 30.2 in /  1021.9 hPa West 1 mph /  1.6 km/h   93 % 0 in /  0.0 mm
05:37 52.2 °F /  11.2 °C 50.2 °F /  10.1 °C 30.2 in /  1021.9 hPa Calm   2 mph /  3.2 km/h 93 % 0 in /  0.0 mm
05:42 52.3 °F /  11.3 °C 50 °F /  10.0 °C 30.2 in /  1021.9 hPa West 1 mph /  1.6 km/h 2 mph /  3.2 km/h 92 % 0 in /  0.0 mm
05:52 52.5 °F /  11.4 °C 50.2 °F /  10.1 °C 30.2 in /  1021.9 hPa WNW 2 mph /  3.2 km/h 2 mph /  3.2 km/h 92 % 0 in /  0.0 mm
05:57 53.1 °F /  11.7 °C 50.5 °F /  10.3 °C 30.2 in /  1021.9 hPa West 1 mph /  1.6 km/h 7 mph /  11.3 km/h 91 % 0 in /  0.0 mm
06:02 53.2 °F /  11.8 °C 50.4 °F /  10.2 °C 30.2 in /  1021.9 hPa WNW 2 mph /  3.2 km/h 7 mph /  11.3 km/h 90 % 0 in /  0.0 mm
06:07 53.4 °F /  11.9 °C 50.2 °F /  10.1 °C 30.2 in /  1021.9 hPa NW 1 mph /  1.6 km/h 7 mph /  11.3 km/h 89 % 0 in /  0.0 mm
06:12 53.6 °F /  12.0 °C 50.4 °F /  10.2 °C 30.2 in /  1021.9 hPa WNW 3 mph /  4.8 km/h 7 mph /  11.3 km/h 89 % 0 in /  0.0 mm
06:17 53.8 °F /  12.1 °C 50.4 °F /  10.2 °C 30.2 in /  1021.9 hPa NNW 2 mph /  3.2 km/h 8 mph /  12.9 km/h 88 % 0 in /  0.0 mm
06:22 53.8 °F /  12.1 °C 50.4 °F /  10.2 °C 30.2 in /  1021.9 hPa WNW 2 mph /  3.2 km/h 8 mph /  12.9 km/h 88 % 0 in /  0.0 mm
06:32 53.8 °F /  12.1 °C 50.4 °F /  10.2 °C 30.2 in /  1021.6 hPa NW 2 mph /  3.2 km/h 7 mph /  11.3 km/h 88 % 0 in /  0.0 mm
06:37 53.8 °F /  12.1 °C 50.4 °F /  10.2 °C 30.2 in /  1021.6 hPa NNW 2 mph /  3.2 km/h 7 mph /  11.3 km/h 88 % 0 in /  0.0 mm
06:42 53.8 °F /  12.1 °C 50.4 °F /  10.2 °C 30.2 in /  1021.6 hPa NE 3 mph /  4.8 km/h 6 mph /  9.7 km/h 88 % 0 in /  0.0 mm
06:47 53.8 °F /  12.1 °C 50.5 °F /  10.3 °C 30.2 in /  1021.9 hPa NNW 2 mph /  3.2 km/h 6 mph /  9.7 km/h 89 % 0 in /  0.0 mm
06:52 53.6 °F /  12.0 °C 50.4 °F /  10.2 °C 30.2 in /  1021.9 hPa NNW 1 mph /  1.6 km/h 5 mph /  8.0 km/h 89 % 0 in /  0.0 mm
07:02 53.6 °F /  12.0 °C 50.4 °F /  10.2 °C 30.2 in /  1021.9 hPa NW 1 mph /  1.6 km/h 3 mph /  4.8 km/h 89 % 0 in /  0.0 mm
07:07 53.4 °F /  11.9 °C 50.2 °F /  10.1 °C 30.2 in /  1021.9 hPa NNW 1 mph /  1.6 km/h 3 mph /  4.8 km/h 89 % 0 in /  0.0 mm
07:12 53.4 °F /  11.9 °C 50.2 °F /  10.1 °C 30.2 in /  1021.9 hPa Calm   3 mph /  4.8 km/h 89 % 0 in /  0.0 mm
07:17 53.4 °F /  11.9 °C 50.2 °F /  10.1 °C 30.2 in /  1021.9 hPa NW 1 mph /  1.6 km/h 2 mph /  3.2 km/h 89 % 0 in /  0.0 mm
07:22 53.4 °F /  11.9 °C 50.2 °F /  10.1 °C 30.2 in /  1021.9 hPa Calm   1 mph /  1.6 km/h 89 % 0 in /  0.0 mm
07:27 53.4 °F /  11.9 °C 50.2 °F /  10.1 °C 30.2 in /  1021.9 hPa Calm   1 mph /  1.6 km/h 89 % 0 in /  0.0 mm
07:32 53.4 °F /  11.9 °C 50.2 °F /  10.1 °C 30.2 in /  1021.9 hPa Calm   1 mph /  1.6 km/h 89 % 0 in /  0.0 mm
07:37 53.4 °F /  11.9 °C 50.2 °F /  10.1 °C 30.2 in /  1021.9 hPa Calm     89 % 0 in /  0.0 mm
07:42 53.2 °F /  11.8 °C 50.4 °F /  10.2 °C 30.2 in /  1021.9 hPa Calm     90 % 0 in /  0.0 mm
07:47 53.4 °F /  11.9 °C 50.5 °F /  10.3 °C 30.2 in /  1021.9 hPa Calm     90 % 0 in /  0.0 mm
07:52 53.4 °F /  11.9 °C 50.5 °F /  10.3 °C 30.2 in /  1021.9 hPa Calm   1 mph /  1.6 km/h 90 % 0 in /  0.0 mm
07:57 53.4 °F /  11.9 °C 50.5 °F /  10.3 °C 30.2 in /  1021.9 hPa Calm   2 mph /  3.2 km/h 90 % 0 in /  0.0 mm
08:02 53.6 °F /  12.0 °C 50.7 °F /  10.4 °C 30.2 in /  1021.9 hPa Calm   2 mph /  3.2 km/h 90 % 0 in /  0.0 mm
08:07 53.8 °F /  12.1 °C 50.9 °F /  10.5 °C 30.2 in /  1021.9 hPa Calm   1 mph /  1.6 km/h 90 % 0 in /  0.0 mm
08:12 53.8 °F /  12.1 °C 50.9 °F /  10.5 °C 30.2 in /  1021.9 hPa Calm   1 mph /  1.6 km/h 90 % 0 in /  0.0 mm
08:17 53.8 °F /  12.1 °C 50.9 °F /  10.5 °C 30.2 in /  1021.9 hPa WNW 1 mph /  1.6 km/h 1 mph /  1.6 km/h 90 % 0 in /  0.0 mm
08:22 54 °F /  12.2 °C 51.1 °F /  10.6 °C 30.2 in /  1021.9 hPa Calm   1 mph /  1.6 km/h 90 % 0 in /  0.0 mm
08:27 54 °F /  12.2 °C 51.1 °F /  10.6 °C 30.2 in /  1021.9 hPa Calm   1 mph /  1.6 km/h 90 % 0 in /  0.0 mm
08:32 54.1 °F /  12.3 °C 51.3 °F /  10.7 °C 30.2 in /  1021.9 hPa NW 1 mph /  1.6 km/h 2 mph /  3.2 km/h 90 % 0 in /  0.0 mm
08:37 54.1 °F /  12.3 °C 51.3 °F /  10.7 °C 30.2 in /  1021.9 hPa Calm   2 mph /  3.2 km/h 90 % 0 in /  0.0 mm
08:42 54.3 °F /  12.4 °C 51.4 °F /  10.8 °C 30.2 in /  1022.2 hPa Calm   2 mph /  3.2 km/h 90 % 0 in /  0.0 mm
08:47 54.3 °F /  12.4 °C 51.4 °F /  10.8 °C 30.2 in /  1022.2 hPa Calm   2 mph /  3.2 km/h 90 % 0 in /  0.0 mm
08:52 54.7 °F /  12.6 °C 51.4 °F /  10.8 °C 30.2 in /  1022.2 hPa WNW 1 mph /  1.6 km/h 1 mph /  1.6 km/h 89 % 0 in /  0.0 mm
08:57 54.9 °F /  12.7 °C 51.6 °F /  10.9 °C 30.2 in /  1022.2 hPa Calm   2 mph /  3.2 km/h 89 % 0 in /  0.0 mm
09:02 55 °F /  12.8 °C 51.8 °F /  11.0 °C 30.2 in /  1022.2 hPa Calm   2 mph /  3.2 km/h 89 % 0 in /  0.0 mm
09:12 55.6 °F /  13.1 °C 51.8 °F /  11.0 °C 30.2 in /  1022.2 hPa Calm   1 mph /  1.6 km/h 87 % 0 in /  0.0 mm
09:17 55.8 °F /  13.2 °C 52 °F /  11.1 °C 30.2 in /  1022.2 hPa Calm   1 mph /  1.6 km/h 87 % 0 in /  0.0 mm
09:22 55.9 °F /  13.3 °C 51.8 °F /  11.0 °C 30.2 in /  1022.6 hPa Calm   1 mph /  1.6 km/h 86 % 0 in /  0.0 mm
09:27 56.1 °F /  13.4 °C 52 °F /  11.1 °C 30.2 in /  1022.2 hPa Calm   1 mph /  1.6 km/h 86 % 0 in /  0.0 mm
09:32 56.7 °F /  13.7 °C 52.5 °F /  11.4 °C 30.2 in /  1022.2 hPa Calm   1 mph /  1.6 km/h 86 % 0 in /  0.0 mm
09:37 56.7 °F /  13.7 °C 51.8 °F /  11.0 °C 30.2 in /  1022.2 hPa Calm   1 mph /  1.6 km/h 84 % 0 in /  0.0 mm
09:42 57 °F /  13.9 °C 52.2 °F /  11.2 °C 30.2 in /  1022.6 hPa Calm   4 mph /  6.4 km/h 84 % 0 in /  0.0 mm
09:47 57.6 °F /  14.2 °C 52.7 °F /  11.5 °C 30.2 in /  1022.6 hPa Calm   4 mph /  6.4 km/h 84 % 0 in /  0.0 mm
09:52 57.7 °F /  14.3 °C 52.3 °F /  11.3 °C 30.2 in /  1022.6 hPa West 2 mph /  3.2 km/h 4 mph /  6.4 km/h 82 % 0 in /  0.0 mm
09:57 57.9 °F /  14.4 °C 52.5 °F /  11.4 °C 30.2 in /  1022.6 hPa NW 3 mph /  4.8 km/h 3 mph /  4.8 km/h 82 % 0 in /  0.0 mm
10:02 57.9 °F /  14.4 °C 52.5 °F /  11.4 °C 30.2 in /  1022.6 hPa NNE 1 mph /  1.6 km/h 4 mph /  6.4 km/h 82 % 0 in /  0.0 mm
10:07 58.3 °F /  14.6 °C 52.9 °F /  11.6 °C 30.2 in /  1022.6 hPa North 1 mph /  1.6 km/h 6 mph /  9.7 km/h 82 % 0 in /  0.0 mm
10:12 58.3 °F /  14.6 °C 53.1 °F /  11.7 °C 30.2 in /  1022.6 hPa NE 2 mph /  3.2 km/h 7 mph /  11.3 km/h 83 % 0 in /  0.0 mm
10:17 58.3 °F /  14.6 °C 52.9 °F /  11.6 °C 30.2 in /  1022.6 hPa North 2 mph /  3.2 km/h 7 mph /  11.3 km/h 82 % 0 in /  0.0 mm
10:22 58.1 °F /  14.5 °C 52.7 °F /  11.5 °C 30.2 in /  1022.6 hPa NNW 4 mph /  6.4 km/h 7 mph /  11.3 km/h 82 % 0 in /  0.0 mm
10:27 58.3 °F /  14.6 °C 52.9 °F /  11.6 °C 30.2 in /  1022.6 hPa WNW 1 mph /  1.6 km/h 6 mph /  9.7 km/h 82 % 0 in /  0.0 mm
10:32 58.5 °F /  14.7 °C 53.1 °F /  11.7 °C 30.2 in /  1022.9 hPa NNE 1 mph /  1.6 km/h 5 mph /  8.0 km/h 82 % 0 in /  0.0 mm
10:37 59 °F /  15.0 °C 53.2 °F /  11.8 °C 30.2 in /  1022.9 hPa North 2 mph /  3.2 km/h 4 mph /  6.4 km/h 81 % 0 in /  0.0 mm
10:42 59.4 °F /  15.2 °C 53.6 °F /  12.0 °C 30.2 in /  1022.9 hPa NE 6 mph /  9.7 km/h 6 mph /  9.7 km/h 81 % 0 in /  0.0 mm
10:47 59.5 °F /  15.3 °C 53.4 °F /  11.9 °C 30.2 in /  1022.9 hPa NNE 5 mph /  8.0 km/h 7 mph /  11.3 km/h 80 % 0 in /  0.0 mm
10:52 59.4 °F /  15.2 °C 53.2 °F /  11.8 °C 30.2 in /  1022.9 hPa NNE 5 mph /  8.0 km/h 11 mph /  17.7 km/h 80 % 0 in /  0.0 mm
10:57 59.2 °F /  15.1 °C 53.1 °F /  11.7 °C 30.2 in /  1022.9 hPa NNE 3 mph /  4.8 km/h 11 mph /  17.7 km/h 80 % 0 in /  0.0 mm
11:02 59.5 °F /  15.3 °C 54 °F /  12.2 °C 30.2 in /  1022.9 hPa Calm   11 mph /  17.7 km/h 82 % 0 in /  0.0 mm
11:07 59.9 °F /  15.5 °C 53.4 °F /  11.9 °C 30.2 in /  1022.9 hPa NNW 3 mph /  4.8 km/h 8 mph /  12.9 km/h 79 % 0 in /  0.0 mm
11:12 59.9 °F /  15.5 °C 53.4 °F /  11.9 °C 30.2 in /  1022.9 hPa WNW 1 mph /  1.6 km/h 7 mph /  11.3 km/h 79 % 0 in /  0.0 mm
11:17 59.5 °F /  15.3 °C 52.7 °F /  11.5 °C 30.2 in /  1022.9 hPa NE 5 mph /  8.0 km/h 7 mph /  11.3 km/h 78 % 0 in /  0.0 mm
11:22 59.5 °F /  15.3 °C 53.1 °F /  11.7 °C 30.2 in /  1022.9 hPa Calm   6 mph /  9.7 km/h 79 % 0 in /  0.0 mm
11:27 59.9 °F /  15.5 °C 53.4 °F /  11.9 °C 30.2 in /  1022.9 hPa NNE 1 mph /  1.6 km/h 6 mph /  9.7 km/h 79 % 0 in /  0.0 mm
11:32 60.1 °F /  15.6 °C 53.2 °F /  11.8 °C 30.2 in /  1022.9 hPa Calm   6 mph /  9.7 km/h 78 % 0 in /  0.0 mm
11:37 60.3 °F /  15.7 °C 52.7 °F /  11.5 °C 30.2 in /  1022.9 hPa NNE 3 mph /  4.8 km/h 3 mph /  4.8 km/h 76 % 0 in /  0.0 mm
11:42 60.3 °F /  15.7 °C 52.7 °F /  11.5 °C 30.2 in /  1022.9 hPa NE 3 mph /  4.8 km/h 6 mph /  9.7 km/h 76 % 0 in /  0.0 mm
11:47 60.6 °F /  15.9 °C 52.3 °F /  11.3 °C 30.2 in /  1022.9 hPa ENE 3 mph /  4.8 km/h 6 mph /  9.7 km/h 74 % 0 in /  0.0 mm
11:52 61.2 °F /  16.2 °C 53.2 °F /  11.8 °C 30.2 in /  1022.9 hPa East 2 mph /  3.2 km/h 6 mph /  9.7 km/h 75 % 0 in /  0.0 mm
11:57 61.9 °F /  16.6 °C 52.7 °F /  11.5 °C 30.2 in /  1022.9 hPa NNE 2 mph /  3.2 km/h 6 mph /  9.7 km/h 72 % 0 in /  0.0 mm
12:02 62.2 °F /  16.8 °C 54.1 °F /  12.3 °C 30.2 in /  1022.9 hPa East 2 mph /  3.2 km/h 5 mph /  8.0 km/h 75 % 0 in /  0.0 mm
12:07 62.4 °F /  16.9 °C 53.2 °F /  11.8 °C 30.2 in /  1022.9 hPa Calm   5 mph /  8.0 km/h 72 % 0 in /  0.0 mm
12:12 61.9 °F /  16.6 °C 53.4 °F /  11.9 °C 30.2 in /  1022.9 hPa Calm   4 mph /  6.4 km/h 74 % 0 in /  0.0 mm
12:17 61.7 °F /  16.5 °C 53.8 °F /  12.1 °C 30.2 in /  1022.6 hPa Calm   3 mph /  4.8 km/h 75 % 0 in /  0.0 mm
12:22 61.3 °F /  16.3 °C 52.7 °F /  11.5 °C 30.2 in /  1022.6 hPa Calm   3 mph /  4.8 km/h 73 % 0 in /  0.0 mm
12:27 61.2 °F /  16.2 °C 52.9 °F /  11.6 °C 30.2 in /  1022.6 hPa Calm   3 mph /  4.8 km/h 74 % 0 in /  0.0 mm
12:32 61.2 °F /  16.2 °C 52.9 °F /  11.6 °C 30.2 in /  1022.6 hPa Calm   4 mph /  6.4 km/h 74 % 0 in /  0.0 mm
12:37 61.3 °F /  16.3 °C 52.2 °F /  11.2 °C 30.2 in /  1022.6 hPa Calm   4 mph /  6.4 km/h 72 % 0 in /  0.0 mm
12:42 61.3 °F /  16.3 °C 52.7 °F /  11.5 °C 30.2 in /  1022.6 hPa NNW 1 mph /  1.6 km/h 4 mph /  6.4 km/h 73 % 0 in /  0.0 mm
12:47 61.3 °F /  16.3 °C 52.2 °F /  11.2 °C 30.2 in /  1022.6 hPa WNW 1 mph /  1.6 km/h 4 mph /  6.4 km/h 72 % 0 in /  0.0 mm
12:52 62.2 °F /  16.8 °C 53.1 °F /  11.7 °C 30.2 in /  1022.6 hPa Calm   3 mph /  4.8 km/h 72 % 0 in /  0.0 mm
12:57 62.6 °F /  17.0 °C 52.7 °F /  11.5 °C 30.2 in /  1022.2 hPa NE 3 mph /  4.8 km/h 3 mph /  4.8 km/h 70 % 0 in /  0.0 mm
13:02 63.1 °F /  17.3 °C 54 °F /  12.2 °C 30.2 in /  1022.2 hPa WNW 3 mph /  4.8 km/h 4 mph /  6.4 km/h 72 % 0 in /  0.0 mm
13:07 63.3 °F /  17.4 °C 53.1 °F /  11.7 °C 30.2 in /  1022.2 hPa WNW 2 mph /  3.2 km/h 5 mph /  8.0 km/h 69 % 0 in /  0.0 mm
13:12 63.7 °F /  17.6 °C 53.2 °F /  11.8 °C 30.2 in /  1022.2 hPa West 3 mph /  4.8 km/h 7 mph /  11.3 km/h 69 % 0 in /  0.0 mm
13:17 64.2 °F /  17.9 °C 53.8 °F /  12.1 °C 30.2 in /  1022.2 hPa NNW 1 mph /  1.6 km/h 7 mph /  11.3 km/h 69 % 0 in /  0.0 mm
13:22 64.2 °F /  17.9 °C 51.4 °F /  10.8 °C 30.2 in /  1022.2 hPa NNW 4 mph /  6.4 km/h 7 mph /  11.3 km/h 63 % 0 in /  0.0 mm
13:27 63.9 °F /  17.7 °C 51.4 °F /  10.8 °C 30.2 in /  1022.2 hPa WNW 3 mph /  4.8 km/h 11 mph /  17.7 km/h 64 % 0 in /  0.0 mm
13:32 64.2 °F /  17.9 °C 51.4 °F /  10.8 °C 30.2 in /  1022.2 hPa WNW 2 mph /  3.2 km/h 11 mph /  17.7 km/h 63 % 0 in /  0.0 mm
13:37 64.9 °F /  18.3 °C 50.7 °F /  10.4 °C 30.2 in /  1022.2 hPa NNW 3 mph /  4.8 km/h 11 mph /  17.7 km/h 60 % 0 in /  0.0 mm
13:42 64.9 °F /  18.3 °C 50.7 °F /  10.4 °C 30.2 in /  1021.9 hPa WNW 1 mph /  1.6 km/h 9 mph /  14.5 km/h 60 % 0 in /  0.0 mm
13:47 65.5 °F /  18.6 °C 51.6 °F /  10.9 °C 30.2 in /  1021.9 hPa NNE 4 mph /  6.4 km/h 9 mph /  14.5 km/h 61 % 0 in /  0.0 mm
13:52 65.1 °F /  18.4 °C 51.3 °F /  10.7 °C 30.2 in /  1021.9 hPa NE 5 mph /  8.0 km/h 9 mph /  14.5 km/h 61 % 0 in /  0.0 mm
13:57 64.8 °F /  18.2 °C 51.4 °F /  10.8 °C 30.2 in /  1021.9 hPa NW 1 mph /  1.6 km/h 12 mph /  19.3 km/h 62 % 0 in /  0.0 mm
14:02 65.5 °F /  18.6 °C 51.3 °F /  10.7 °C 30.2 in /  1021.9 hPa NNW 3 mph /  4.8 km/h 12 mph /  19.3 km/h 60 % 0 in /  0.0 mm
14:07 66 °F /  18.9 °C 50.4 °F /  10.2 °C 30.2 in /  1021.9 hPa WNW 5 mph /  8.0 km/h 12 mph /  19.3 km/h 57 % 0 in /  0.0 mm
14:12 66.4 °F /  19.1 °C 49.6 °F /  9.8 °C 30.2 in /  1021.9 hPa WNW 4 mph /  6.4 km/h 9 mph /  14.5 km/h 55 % 0 in /  0.0 mm
14:17 66.6 °F /  19.2 °C 49.5 °F /  9.7 °C 30.2 in /  1021.9 hPa NW 5 mph /  8.0 km/h 10 mph /  16.1 km/h 54 % 0 in /  0.0 mm
14:27 67.1 °F /  19.5 °C 49.8 °F /  9.9 °C 30.2 in /  1021.6 hPa NW 1 mph /  1.6 km/h 12 mph /  19.3 km/h 54 % 0 in /  0.0 mm
14:32 67.6 °F /  19.8 °C 50.4 °F /  10.2 °C 30.2 in /  1021.6 hPa NNW 4 mph /  6.4 km/h 12 mph /  19.3 km/h 54 % 0 in /  0.0 mm
14:42 67.3 °F /  19.6 °C 49.1 °F /  9.5 °C 30.2 in /  1021.6 hPa North 6 mph /  9.7 km/h 12 mph /  19.3 km/h 52 % 0 in /  0.0 mm
14:47 66.4 °F /  19.1 °C 50.2 °F /  10.1 °C 30.2 in /  1021.6 hPa NW 9 mph /  14.5 km/h 12 mph /  19.3 km/h 56 % 0 in /  0.0 mm
14:52 64.9 °F /  18.3 °C 50.7 °F /  10.4 °C 30.2 in /  1021.6 hPa WNW 4 mph /  6.4 km/h 12 mph /  19.3 km/h 60 % 0 in /  0.0 mm
14:57 63.7 °F /  17.6 °C 50 °F /  10.0 °C 30.2 in /  1021.6 hPa NW 6 mph /  9.7 km/h 16 mph /  25.7 km/h 61 % 0 in /  0.0 mm
15:02 62.8 °F /  17.1 °C 49.1 °F /  9.5 °C 30.2 in /  1021.9 hPa WNW 15 mph /  24.1 km/h 16 mph /  25.7 km/h 61 % 0 in /  0.0 mm
15:12 61.2 °F /  16.2 °C 49.6 °F /  9.8 °C 30.2 in /  1021.9 hPa WSW 7 mph /  11.3 km/h 17 mph /  27.4 km/h 66 % 0 in /  0.0 mm
15:17 60.8 °F /  16.0 °C 50.2 °F /  10.1 °C 30.2 in /  1021.9 hPa WNW 4 mph /  6.4 km/h 17 mph /  27.4 km/h 68 % 0 in /  0.0 mm
15:22 61 °F /  16.1 °C 50.4 °F /  10.2 °C 30.2 in /  1021.9 hPa West 9 mph /  14.5 km/h 14 mph /  22.5 km/h 68 % 0 in /  0.0 mm
15:27 61 °F /  16.1 °C 50.4 °F /  10.2 °C 30.2 in /  1021.9 hPa NNE 7 mph /  11.3 km/h 16 mph /  25.7 km/h 68 % 0 in /  0.0 mm
15:32 61.2 °F /  16.2 °C 50.5 °F /  10.3 °C 30.2 in /  1021.6 hPa NNW 9 mph /  14.5 km/h 16 mph /  25.7 km/h 68 % 0 in /  0.0 mm
15:37 61.9 °F /  16.6 °C 50.7 °F /  10.4 °C 30.2 in /  1021.6 hPa WNW 5 mph /  8.0 km/h 16 mph /  25.7 km/h 67 % 0 in /  0.0 mm
15:42 63 °F /  17.2 °C 52.2 °F /  11.2 °C 30.2 in /  1021.9 hPa West 6 mph /  9.7 km/h 14 mph /  22.5 km/h 68 % 0 in /  0.0 mm
15:47 63.9 °F /  17.7 °C 51.8 °F /  11.0 °C 30.2 in /  1021.6 hPa WNW 5 mph /  8.0 km/h 14 mph /  22.5 km/h 65 % 0 in /  0.0 mm
15:52 64.6 °F /  18.1 °C 50.4 °F /  10.2 °C 30.2 in /  1021.6 hPa SW 4 mph /  6.4 km/h 15 mph /  24.1 km/h 60 % 0 in /  0.0 mm
15:57 64.9 °F /  18.3 °C 50.7 °F /  10.4 °C 30.2 in /  1021.6 hPa WNW 9 mph /  14.5 km/h 15 mph /  24.1 km/h 60 % 0 in /  0.0 mm
16:02 65.1 °F /  18.4 °C 50 °F /  10.0 °C 30.2 in /  1021.6 hPa WSW 8 mph /  12.9 km/h 15 mph /  24.1 km/h 58 % 0 in /  0.0 mm
16:07 65.1 °F /  18.4 °C 50.4 °F /  10.2 °C 30.2 in /  1021.6 hPa NNW 7 mph /  11.3 km/h 14 mph /  22.5 km/h 59 % 0 in /  0.0 mm
16:12 65.7 °F /  18.7 °C 51.4 °F /  10.8 °C 30.2 in /  1021.6 hPa WNW 7 mph /  11.3 km/h 15 mph /  24.1 km/h 60 % 0 in /  0.0 mm
16:17 65.7 °F /  18.7 °C 51.4 °F /  10.8 °C 30.2 in /  1021.6 hPa North 4 mph /  6.4 km/h 15 mph /  24.1 km/h 60 % 0 in /  0.0 mm
16:22 66.2 °F /  19.0 °C 51.4 °F /  10.8 °C 30.2 in /  1021.6 hPa WSW 6 mph /  9.7 km/h 15 mph /  24.1 km/h 59 % 0 in /  0.0 mm
16:32 66.4 °F /  19.1 °C 50.7 °F /  10.4 °C 30.2 in /  1021.2 hPa WNW 2 mph /  3.2 km/h 11 mph /  17.7 km/h 57 % 0 in /  0.0 mm
16:37 66.7 °F /  19.3 °C 52 °F /  11.1 °C 30.2 in /  1021.2 hPa WSW 7 mph /  11.3 km/h 11 mph /  17.7 km/h 59 % 0 in /  0.0 mm
16:42 66.2 °F /  19.0 °C 52.3 °F /  11.3 °C 30.2 in /  1021.2 hPa WNW 5 mph /  8.0 km/h 10 mph /  16.1 km/h 61 % 0 in /  0.0 mm
16:47 66.2 °F /  19.0 °C 49.6 °F /  9.8 °C 30.2 in /  1021.6 hPa NNW 6 mph /  9.7 km/h 14 mph /  22.5 km/h 55 % 0 in /  0.0 mm
16:52 65.5 °F /  18.6 °C 48.9 °F /  9.4 °C 30.2 in /  1021.6 hPa WNW 10 mph /  16.1 km/h 14 mph /  22.5 km/h 55 % 0 in /  0.0 mm
16:57 64.9 °F /  18.3 °C 49.3 °F /  9.6 °C 30.2 in /  1021.6 hPa WNW 8 mph /  12.9 km/h 14 mph /  22.5 km/h 57 % 0 in /  0.0 mm
17:02 65.5 °F /  18.6 °C 50.7 °F /  10.4 °C 30.2 in /  1021.6 hPa North 4 mph /  6.4 km/h 14 mph /  22.5 km/h 59 % 0 in /  0.0 mm
17:07 66 °F /  18.9 °C 50.9 °F /  10.5 °C 30.2 in /  1021.6 hPa North 5 mph /  8.0 km/h 14 mph /  22.5 km/h 58 % 0 in /  0.0 mm
17:12 66.2 °F /  19.0 °C 50.9 °F /  10.5 °C 30.2 in /  1021.6 hPa WNW 8 mph /  12.9 km/h 13 mph /  20.9 km/h 58 % 0 in /  0.0 mm
17:17 66.7 °F /  19.3 °C 51.4 °F /  10.8 °C 30.2 in /  1021.6 hPa NNW 8 mph /  12.9 km/h 11 mph /  17.7 km/h 58 % 0 in /  0.0 mm
17:22 66.7 °F /  19.3 °C 51.1 °F /  10.6 °C 30.2 in /  1021.6 hPa WNW 7 mph /  11.3 km/h 11 mph /  17.7 km/h 57 % 0 in /  0.0 mm
17:27 67.3 °F /  19.6 °C 50.5 °F /  10.3 °C 30.2 in /  1021.6 hPa NW 4 mph /  6.4 km/h 12 mph /  19.3 km/h 55 % 0 in /  0.0 mm
17:32 67.5 °F /  19.7 °C 49.8 °F /  9.9 °C 30.2 in /  1021.6 hPa NNE 5 mph /  8.0 km/h 12 mph /  19.3 km/h 53 % 0 in /  0.0 mm
17:37 67.1 °F /  19.5 °C 50.4 °F /  10.2 °C 30.2 in /  1021.6 hPa North 4 mph /  6.4 km/h 12 mph /  19.3 km/h 55 % 0 in /  0.0 mm
17:42 65.8 °F /  18.8 °C 51.6 °F /  10.9 °C 30.2 in /  1021.6 hPa NW 6 mph /  9.7 km/h 16 mph /  25.7 km/h 60 % 0 in /  0.0 mm
17:47 64.2 °F /  17.9 °C 50.9 °F /  10.5 °C 30.2 in /  1021.6 hPa NE 5 mph /  8.0 km/h 16 mph /  25.7 km/h 62 % 0 in /  0.0 mm
17:52 63.5 °F /  17.5 °C 51.1 °F /  10.6 °C 30.2 in /  1021.6 hPa NNE 7 mph /  11.3 km/h 16 mph /  25.7 km/h 64 % 0 in /  0.0 mm
17:57 63.1 °F /  17.3 °C 51.6 °F /  10.9 °C 30.2 in /  1021.6 hPa ENE 7 mph /  11.3 km/h 14 mph /  22.5 km/h 66 % 0 in /  0.0 mm
18:02 63.3 °F /  17.4 °C 51.8 °F /  11.0 °C 30.2 in /  1021.6 hPa ENE 3 mph /  4.8 km/h 14 mph /  22.5 km/h 66 % 0 in /  0.0 mm
18:07 64 °F /  17.8 °C 51.6 °F /  10.9 °C 30.2 in /  1021.6 hPa NE 7 mph /  11.3 km/h 14 mph /  22.5 km/h 64 % 0 in /  0.0 mm
18:12 64.2 °F /  17.9 °C 51.4 °F /  10.8 °C 30.2 in /  1021.6 hPa NE 1 mph /  1.6 km/h 11 mph /  17.7 km/h 63 % 0 in /  0.0 mm
18:17 64.9 °F /  18.3 °C 51.6 °F /  10.9 °C 30.2 in /  1021.6 hPa North 4 mph /  6.4 km/h 8 mph /  12.9 km/h 62 % 0 in /  0.0 mm
18:22 65.7 °F /  18.7 °C 51.4 °F /  10.8 °C 30.2 in /  1021.6 hPa NE 4 mph /  6.4 km/h 8 mph /  12.9 km/h 60 % 0 in /  0.0 mm
18:27 65.8 °F /  18.8 °C 50.7 °F /  10.4 °C 30.2 in /  1021.6 hPa NE 1 mph /  1.6 km/h 7 mph /  11.3 km/h 58 % 0 in /  0.0 mm
18:32 66 °F /  18.9 °C 51.8 °F /  11.0 °C 30.2 in /  1021.2 hPa NE 2 mph /  3.2 km/h 7 mph /  11.3 km/h 60 % 0 in /  0.0 mm
18:42 65.5 °F /  18.6 °C 52.2 °F /  11.2 °C 30.2 in /  1021.6 hPa NNW 3 mph /  4.8 km/h 11 mph /  17.7 km/h 62 % 0 in /  0.0 mm
18:47 65.5 °F /  18.6 °C 51.6 °F /  10.9 °C 30.2 in /  1021.6 hPa NNW 3 mph /  4.8 km/h 11 mph /  17.7 km/h 61 % 0 in /  0.0 mm
18:57 65.5 °F /  18.6 °C 51.3 °F /  10.7 °C 30.2 in /  1021.6 hPa NE 7 mph /  11.3 km/h 8 mph /  12.9 km/h 60 % 0 in /  0.0 mm
19:02 65.3 °F /  18.5 °C 50.5 °F /  10.3 °C 30.2 in /  1021.2 hPa NE 5 mph /  8.0 km/h 8 mph /  12.9 km/h 59 % 0 in /  0.0 mm
19:07 65.3 °F /  18.5 °C 52 °F /  11.1 °C 30.2 in /  1021.2 hPa ENE 3 mph /  4.8 km/h 8 mph /  12.9 km/h 62 % 0 in /  0.0 mm
19:12 65.1 °F /  18.4 °C 51.3 °F /  10.7 °C 30.2 in /  1021.2 hPa Calm   8 mph /  12.9 km/h 61 % 0 in /  0.0 mm
19:17 65.5 °F /  18.6 °C 51.6 °F /  10.9 °C 30.2 in /  1021.2 hPa NE 1 mph /  1.6 km/h 5 mph /  8.0 km/h 61 % 0 in /  0.0 mm
19:22 65.5 °F /  18.6 °C 51.3 °F /  10.7 °C 30.2 in /  1021.6 hPa ENE 1 mph /  1.6 km/h 4 mph /  6.4 km/h 60 % 0 in /  0.0 mm
19:27 65.5 °F /  18.6 °C 51.6 °F /  10.9 °C 30.2 in /  1021.2 hPa North 2 mph /  3.2 km/h 3 mph /  4.8 km/h 61 % 0 in /  0.0 mm
19:32 65.5 °F /  18.6 °C 51.6 °F /  10.9 °C 30.2 in /  1021.2 hPa Calm   3 mph /  4.8 km/h 61 % 0 in /  0.0 mm
19:37 65.7 °F /  18.7 °C 51.8 °F /  11.0 °C 30.2 in /  1021.2 hPa Calm   3 mph /  4.8 km/h 61 % 0 in /  0.0 mm
19:42 65.8 °F /  18.8 °C 50.7 °F /  10.4 °C 30.2 in /  1021.2 hPa NW 2 mph /  3.2 km/h 3 mph /  4.8 km/h 58 % 0 in /  0.0 mm
19:47 65.5 °F /  18.6 °C 49.8 °F /  9.9 °C 30.2 in /  1021.2 hPa North 2 mph /  3.2 km/h 4 mph /  6.4 km/h 57 % 0 in /  0.0 mm
19:52 65.1 °F /  18.4 °C 49.5 °F /  9.7 °C 30.2 in /  1021.2 hPa Calm   4 mph /  6.4 km/h 57 % 0 in /  0.0 mm
19:57 64.9 °F /  18.3 °C 49.8 °F /  9.9 °C 30.2 in /  1021.2 hPa Calm   4 mph /  6.4 km/h 58 % 0 in /  0.0 mm
20:02 64.6 °F /  18.1 °C 49.5 °F /  9.7 °C 30.2 in /  1021.2 hPa Calm   3 mph /  4.8 km/h 58 % 0 in /  0.0 mm
20:07 64 °F /  17.8 °C 49.5 °F /  9.7 °C 30.2 in /  1021.2 hPa Calm   1 mph /  1.6 km/h 59 % 0 in /  0.0 mm
20:12 63.7 °F /  17.6 °C 50.4 °F /  10.2 °C 30.2 in /  1021.6 hPa Calm   1 mph /  1.6 km/h 62 % 0 in /  0.0 mm
20:17 63 °F /  17.2 °C 51.1 °F /  10.6 °C 30.2 in /  1021.6 hPa Calm   1 mph /  1.6 km/h 65 % 0 in /  0.0 mm
20:22 62.4 °F /  16.9 °C 51.3 °F /  10.7 °C 30.2 in /  1021.6 hPa Calm     67 % 0 in /  0.0 mm
20:27 61.9 °F /  16.6 °C 51.6 °F /  10.9 °C 30.2 in /  1021.6 hPa Calm     69 % 0 in /  0.0 mm
20:32 61.5 °F /  16.4 °C 51.6 °F /  10.9 °C 30.2 in /  1021.6 hPa Calm     70 % 0 in /  0.0 mm
20:37 61.2 °F /  16.2 °C 51.3 °F /  10.7 °C 30.2 in /  1021.6 hPa Calm     70 % 0 in /  0.0 mm
20:42 60.4 °F /  15.8 °C 51.1 °F /  10.6 °C 30.2 in /  1021.6 hPa Calm     71 % 0 in /  0.0 mm
20:47 60.1 °F /  15.6 °C 51.1 °F /  10.6 °C 30.2 in /  1021.6 hPa Calm     72 % 0 in /  0.0 mm
20:52 59.4 °F /  15.2 °C 50.7 °F /  10.4 °C 30.2 in /  1021.6 hPa Calm     73 % 0 in /  0.0 mm
20:57 58.8 °F /  14.9 °C 50.9 °F /  10.5 °C 30.2 in /  1021.6 hPa Calm     75 % 0 in /  0.0 mm
21:02 58.5 °F /  14.7 °C 50.5 °F /  10.3 °C 30.2 in /  1021.6 hPa Calm     75 % 0 in /  0.0 mm
21:07 57.9 °F /  14.4 °C 50.4 °F /  10.2 °C 30.2 in /  1021.9 hPa West 2 mph /  3.2 km/h   76 % 0 in /  0.0 mm
21:12 57.9 °F /  14.4 °C 50.4 °F /  10.2 °C 30.2 in /  1021.9 hPa Calm   5 mph /  8.0 km/h 76 % 0 in /  0.0 mm
21:17 57.9 °F /  14.4 °C 50.4 °F /  10.2 °C 30.2 in /  1021.9 hPa WSW 1 mph /  1.6 km/h 5 mph /  8.0 km/h 76 % 0 in /  0.0 mm
21:22 58.3 °F /  14.6 °C 50.4 °F /  10.2 °C 30.2 in /  1021.9 hPa NW 1 mph /  1.6 km/h 5 mph /  8.0 km/h 75 % 0 in /  0.0 mm
21:27 59.4 °F /  15.2 °C 50.7 °F /  10.4 °C 30.2 in /  1021.9 hPa NNW 2 mph /  3.2 km/h 5 mph /  8.0 km/h 73 % 0 in /  0.0 mm
21:32 59.9 °F /  15.5 °C 50.5 °F /  10.3 °C 30.2 in /  1021.9 hPa NNW 2 mph /  3.2 km/h 5 mph /  8.0 km/h 71 % 0 in /  0.0 mm
21:37 60.1 °F /  15.6 °C 50.7 °F /  10.4 °C 30.2 in /  1021.9 hPa Calm   4 mph /  6.4 km/h 71 % 0 in /  0.0 mm
21:42 59.7 °F /  15.4 °C 50.4 °F /  10.2 °C 30.2 in /  1021.9 hPa WNW 1 mph /  1.6 km/h 4 mph /  6.4 km/h 71 % 0 in /  0.0 mm
21:52 59.2 °F /  15.1 °C 50.2 °F /  10.1 °C 30.2 in /  1021.9 hPa Calm   2 mph /  3.2 km/h 72 % 0 in /  0.0 mm
21:57 59 °F /  15.0 °C 50.4 °F /  10.2 °C 30.2 in /  1021.9 hPa NNW 1 mph /  1.6 km/h 2 mph /  3.2 km/h 73 % 0 in /  0.0 mm
22:02 58.5 °F /  14.7 °C 50.2 °F /  10.1 °C 30.2 in /  1021.9 hPa WNW 2 mph /  3.2 km/h 2 mph /  3.2 km/h 74 % 0 in /  0.0 mm
22:07 58.3 °F /  14.6 °C 50.7 °F /  10.4 °C 30.2 in /  1021.9 hPa Calm   3 mph /  4.8 km/h 76 % 0 in /  0.0 mm
22:12 58.3 °F /  14.6 °C 50.7 °F /  10.4 °C 30.2 in /  1021.9 hPa Calm   3 mph /  4.8 km/h 76 % 0 in /  0.0 mm
22:17 58.3 °F /  14.6 °C 50.7 °F /  10.4 °C 30.2 in /  1021.9 hPa Calm   3 mph /  4.8 km/h 76 % 0 in /  0.0 mm
22:22 58.3 °F /  14.6 °C 51.1 °F /  10.6 °C 30.2 in /  1021.9 hPa Calm   3 mph /  4.8 km/h 77 % 0 in /  0.0 mm
22:27 58.3 °F /  14.6 °C 51.4 °F /  10.8 °C 30.2 in /  1021.9 hPa Calm   2 mph /  3.2 km/h 78 % 0 in /  0.0 mm
22:32 58.3 °F /  14.6 °C 51.8 °F /  11.0 °C 30.2 in /  1021.9 hPa NW 1 mph /  1.6 km/h 2 mph /  3.2 km/h 79 % 0 in /  0.0 mm
22:37 58.3 °F /  14.6 °C 52.2 °F /  11.2 °C 30.2 in /  1021.9 hPa Calm   1 mph /  1.6 km/h 80 % 0 in /  0.0 mm
22:42 58.1 °F /  14.5 °C 52 °F /  11.1 °C 30.2 in /  1021.9 hPa Calm   1 mph /  1.6 km/h 80 % 0 in /  0.0 mm
22:47 57.9 °F /  14.4 °C 51.8 °F /  11.0 °C 30.2 in /  1021.9 hPa Calm   1 mph /  1.6 km/h 80 % 0 in /  0.0 mm
22:52 57.6 °F /  14.2 °C 51.8 °F /  11.0 °C 30.2 in /  1021.9 hPa Calm   1 mph /  1.6 km/h 81 % 0 in /  0.0 mm
22:57 57.2 °F /  14.0 °C 51.4 °F /  10.8 °C 30.2 in /  1021.9 hPa Calm   1 mph /  1.6 km/h 81 % 0 in /  0.0 mm
23:02 56.7 °F /  13.7 °C 50.9 °F /  10.5 °C 30.2 in /  1021.9 hPa WNW 2 mph /  3.2 km/h 2 mph /  3.2 km/h 81 % 0 in /  0.0 mm
23:07 56.3 °F /  13.5 °C 50.9 °F /  10.5 °C 30.2 in /  1021.9 hPa Calm   2 mph /  3.2 km/h 82 % 0 in /  0.0 mm
23:12 56.1 °F /  13.4 °C 50.7 °F /  10.4 °C 30.2 in /  1021.9 hPa Calm   2 mph /  3.2 km/h 82 % 0 in /  0.0 mm
23:17 56.7 °F /  13.7 °C 50.9 °F /  10.5 °C 30.2 in /  1021.9 hPa Calm   2 mph /  3.2 km/h 81 % 0 in /  0.0 mm
23:22 56.5 °F /  13.6 °C 50.7 °F /  10.4 °C 30.2 in /  1021.9 hPa WNW 1 mph /  1.6 km/h 1 mph /  1.6 km/h 81 % 0 in /  0.0 mm
23:27 55.8 °F /  13.2 °C 50.4 °F /  10.2 °C 30.2 in /  1021.9 hPa WNW 1 mph /  1.6 km/h 1 mph /  1.6 km/h 82 % 0 in /  0.0 mm
23:32 55.2 °F /  12.9 °C 50.2 °F /  10.1 °C 30.2 in /  1021.9 hPa WNW 2 mph /  3.2 km/h 2 mph /  3.2 km/h 83 % 0 in /  0.0 mm
23:42 55 °F /  12.8 °C 50 °F /  10.0 °C 30.2 in /  1021.9 hPa Calm   2 mph /  3.2 km/h 83 % 0 in /  0.0 mm
23:47 55.2 °F /  12.9 °C 49.5 °F /  9.7 °C 30.2 in /  1021.6 hPa Calm   2 mph /  3.2 km/h 81 % 0 in /  0.0 mm
23:52 55.4 °F /  13.0 °C 49.6 °F /  9.8 °C 30.2 in /  1021.6 hPa Calm   1 mph /  1.6 km/h 81 % 0 in /  0.0 mm
23:57 55.2 °F /  12.9 °C 49.1 °F /  9.5 °C 30.2 in /  1021.9 hPa Calm     80 % 0 in /  0.0 mm
Meteo18
Compliments of Weather Underground - 4 mb

Script developed by  Jim McMurry - jmcmurry@mwt.net Adapted for the template by  Wim van der Kuil - Leuven-Template.eu

You find our weather info also at:

European Weather Network

Weather Underground

Equipment we use:

Weather-station
Davis Vue

Weather-program
Meteohub

Weather-server
Raspberry PI 2 B+

Provider
1 and 1

Davis Vue

Meteohub

Raspberry PI 2 B+

1 and 1